createdAt,value
2023-05-16T00:00:32.007Z,1.65
2023-05-16T00:01:33.656Z,1.52
2023-05-16T00:02:36.013Z,1.50
2023-05-16T00:03:37.860Z,1.58
2023-05-16T00:04:39.644Z,1.42
2023-05-16T00:05:41.348Z,1.77
2023-05-16T00:06:43.039Z,1.58
2023-05-16T00:07:45.442Z,1.48
2023-05-16T00:08:47.136Z,1.73
2023-05-16T00:09:49.126Z,1.67
2023-05-16T00:10:50.728Z,1.70
2023-05-16T00:11:52.389Z,1.65
2023-05-16T00:12:54.040Z,1.70
2023-05-16T00:13:55.672Z,1.40
2023-05-16T00:14:57.377Z,1.60
2023-05-16T00:15:58.980Z,1.65
2023-05-16T00:17:00.626Z,1.30
2023-05-16T00:18:02.266Z,1.40
2023-05-16T00:19:04.013Z,1.52
2023-05-16T00:20:06.172Z,1.33
2023-05-16T00:22:09.271Z,1.83
2023-05-16T00:23:10.919Z,1.58
2023-05-16T00:24:12.586Z,1.55
2023-05-16T00:25:14.220Z,1.80
2023-05-16T00:26:15.849Z,1.45
2023-05-16T00:27:18.959Z,1.50
2023-05-16T00:28:20.587Z,1.50
2023-05-16T00:29:22.191Z,1.65
2023-05-16T00:30:24.002Z,1.88
2023-05-16T00:31:26.816Z,1.38
2023-05-16T00:32:28.509Z,1.50
2023-05-16T00:33:30.155Z,2.40
2023-05-16T00:34:33.248Z,1.88
2023-05-16T00:35:34.931Z,1.38
2023-05-16T00:36:36.639Z,1.52
2023-05-16T00:37:38.616Z,1.50
2023-05-16T00:38:40.236Z,1.48
2023-05-16T00:39:41.853Z,1.52
2023-05-16T00:40:45.786Z,1.63
2023-05-16T00:41:47.425Z,1.52
2023-05-16T00:42:49.674Z,1.50
2023-05-16T00:43:51.300Z,1.33
2023-05-16T00:44:52.929Z,1.73
2023-05-16T00:45:54.624Z,1.60
2023-05-16T00:46:56.271Z,1.35
2023-05-16T00:47:58.017Z,1.35
2023-05-16T00:48:59.722Z,1.60
2023-05-16T00:50:01.487Z,1.50
2023-05-16T00:51:03.169Z,1.42
2023-05-16T00:52:05.043Z,1.48
2023-05-16T00:53:06.724Z,1.48
2023-05-16T00:54:08.315Z,1.45
2023-05-16T00:55:09.971Z,1.60
2023-05-16T00:56:11.614Z,1.75
2023-05-16T00:57:13.239Z,1.65
2023-05-16T00:58:14.880Z,1.45
2023-05-16T00:59:16.515Z,1.10
2023-05-16T01:00:18.377Z,1.70
2023-05-16T01:01:20.268Z,1.55
2023-05-16T01:02:22.145Z,1.30
2023-05-16T01:03:23.910Z,1.30
2023-05-16T01:04:25.656Z,1.23
2023-05-16T01:05:29.384Z,1.30
2023-05-16T01:06:31.373Z,1.50
2023-05-16T01:07:33.010Z,1.35
2023-05-16T01:08:34.653Z,1.60
2023-05-16T01:09:36.273Z,1.45
2023-05-16T01:10:42.159Z,1.30
2023-05-16T01:11:50.658Z,1.48
2023-05-16T01:12:59.665Z,1.33
2023-05-16T01:14:42.365Z,1.40
2023-05-16T01:16:04.976Z,1.40
2023-05-16T01:17:17.272Z,1.42
2023-05-16T01:18:41.766Z,1.45
2023-05-16T01:19:55.549Z,1.30
2023-05-16T01:20:59.885Z,1.60
2023-05-16T01:22:04.854Z,1.80
2023-05-16T01:23:33.974Z,1.38
2023-05-16T01:24:44.484Z,1.40
2023-05-16T01:25:57.869Z,1.65
2023-05-16T01:26:59.496Z,1.83
2023-05-16T01:28:01.862Z,1.67
2023-05-16T01:29:03.514Z,2.28
2023-05-16T01:30:15.332Z,1.73
2023-05-16T01:31:17.050Z,1.98
2023-05-16T01:32:19.392Z,1.90
2023-05-16T01:33:21.155Z,2.22
2023-05-16T01:34:22.790Z,2.00
2023-05-16T01:35:24.740Z,1.92
2023-05-16T01:37:59.043Z,1.98
2023-05-16T01:39:15.465Z,2.10
2023-05-16T01:40:23.829Z,2.10
2023-05-16T01:41:27.926Z,2.25
2023-05-16T01:42:30.031Z,1.75
2023-05-16T01:43:35.452Z,2.10
2023-05-16T01:44:50.432Z,1.75
2023-05-16T01:45:55.730Z,2.13
2023-05-16T01:46:58.871Z,1.90
2023-05-16T01:48:33.849Z,2.22
2023-05-16T01:49:46.472Z,2.15
2023-05-16T01:50:52.429Z,1.85
2023-05-16T01:52:08.775Z,1.88
2023-05-16T01:53:15.752Z,2.38
2023-05-16T01:54:18.305Z,2.10
2023-05-16T01:55:38.551Z,1.88
2023-05-16T01:57:41.596Z,2.25
2023-05-16T01:58:43.640Z,2.33
2023-05-16T01:59:45.387Z,2.25
2023-05-16T02:00:47.016Z,2.58
2023-05-16T02:01:48.666Z,2.45
2023-05-16T02:02:50.335Z,2.63
2023-05-16T02:03:52.259Z,2.17
2023-05-16T02:04:53.966Z,2.22
2023-05-16T02:05:55.654Z,2.17
2023-05-16T02:06:57.362Z,2.53
2023-05-16T02:07:59.637Z,2.08
2023-05-16T02:09:01.528Z,1.80
2023-05-16T02:10:03.384Z,2.10
2023-05-16T02:11:05.034Z,2.10
2023-05-16T02:12:06.869Z,2.08
2023-05-16T02:13:08.634Z,2.63
2023-05-16T02:14:10.287Z,2.50
2023-05-16T02:15:11.948Z,2.35
2023-05-16T02:16:13.676Z,2.35
2023-05-16T02:17:16.306Z,2.72
2023-05-16T02:18:17.947Z,2.10
2023-05-16T02:19:19.687Z,2.35
2023-05-16T02:20:21.385Z,2.17
2023-05-16T02:21:25.363Z,2.28
2023-05-16T02:22:27.056Z,1.95
2023-05-16T02:23:28.685Z,2.15
2023-05-16T02:24:30.322Z,2.30
2023-05-16T02:25:32.033Z,2.20
2023-05-16T02:26:33.666Z,2.28
2023-05-16T02:27:35.428Z,2.22
2023-05-16T02:28:37.061Z,2.40
2023-05-16T02:29:38.680Z,2.28
2023-05-16T02:30:40.333Z,2.30
2023-05-16T02:31:42.094Z,2.50
2023-05-16T02:32:43.751Z,2.33
2023-05-16T02:33:48.451Z,2.38
2023-05-16T02:34:50.083Z,2.40
2023-05-16T02:35:51.685Z,2.28
2023-05-16T02:36:53.320Z,2.72
2023-05-16T02:37:57.244Z,2.40
2023-05-16T02:38:59.599Z,2.22
2023-05-16T02:40:01.213Z,2.30
2023-05-16T02:41:02.857Z,2.75
2023-05-16T02:42:05.283Z,2.10
2023-05-16T02:43:06.975Z,2.13
2023-05-16T02:44:08.631Z,2.42
2023-05-16T02:45:10.586Z,2.33
2023-05-16T02:46:33.285Z,2.03
2023-05-16T02:47:34.977Z,2.13
2023-05-16T02:48:36.624Z,2.15
2023-05-16T02:49:38.263Z,2.20
2023-05-16T02:50:39.864Z,1.95
2023-05-16T02:51:41.545Z,2.28
2023-05-16T02:52:43.219Z,1.90
2023-05-16T02:53:44.841Z,1.83
2023-05-16T02:54:51.960Z,2.17
2023-05-16T02:56:01.806Z,2.00
2023-05-16T02:57:03.457Z,1.83
2023-05-16T02:58:05.131Z,3.00
2023-05-16T02:59:06.759Z,1.80
2023-05-16T03:00:08.810Z,2.17
2023-05-16T03:01:10.486Z,1.70
2023-05-16T03:02:12.167Z,2.03
2023-05-16T03:03:14.696Z,2.00
2023-05-16T03:04:16.407Z,2.22
2023-05-16T03:05:18.051Z,2.20
2023-05-16T03:06:20.064Z,2.15
2023-05-16T03:07:21.672Z,2.40
2023-05-16T03:08:23.302Z,2.38
2023-05-16T03:09:24.925Z,2.53
2023-05-16T03:10:26.558Z,2.17
2023-05-16T03:11:28.174Z,2.10
2023-05-16T03:12:29.804Z,2.38
2023-05-16T03:13:32.057Z,2.30
2023-05-16T03:14:33.892Z,2.35
2023-05-16T03:15:35.556Z,1.95
2023-05-16T03:16:37.725Z,2.45
2023-05-16T03:18:41.342Z,2.47
2023-05-16T03:19:45.854Z,2.15
2023-05-16T03:20:47.981Z,2.00
2023-05-16T03:21:49.607Z,2.35
2023-05-16T03:22:51.213Z,2.15
2023-05-16T03:23:52.837Z,2.40
2023-05-16T03:24:54.492Z,2.40
2023-05-16T03:25:56.128Z,2.33
2023-05-16T03:26:57.777Z,2.53
2023-05-16T03:27:59.427Z,2.83
2023-05-16T03:29:01.063Z,3.00
2023-05-16T03:30:02.770Z,2.90
2023-05-16T03:31:04.703Z,2.42
2023-05-16T03:32:06.562Z,2.75
2023-05-16T03:33:08.295Z,2.78
2023-05-16T03:34:09.955Z,2.97
2023-05-16T03:35:11.594Z,2.90
2023-05-16T03:36:13.231Z,2.85
2023-05-16T03:37:14.842Z,2.72
2023-05-16T03:38:16.457Z,2.90
2023-05-16T03:39:18.820Z,2.83
2023-05-16T03:40:20.571Z,2.60
2023-05-16T03:41:22.191Z,2.88
2023-05-16T03:42:23.803Z,2.65
2023-05-16T03:43:25.413Z,3.55
2023-05-16T03:44:27.037Z,3.30
2023-05-16T03:45:32.467Z,3.10
2023-05-16T03:46:35.265Z,3.70
2023-05-16T03:47:36.949Z,2.92
2023-05-16T03:48:38.652Z,3.20
2023-05-16T03:49:40.260Z,3.22
2023-05-16T03:50:41.898Z,3.28
2023-05-16T03:51:43.512Z,3.33
2023-05-16T03:52:45.137Z,3.50
2023-05-16T03:53:46.801Z,3.15
2023-05-16T03:54:48.438Z,3.22
2023-05-16T03:55:50.024Z,2.97
2023-05-16T03:56:51.700Z,3.13
2023-05-16T03:57:53.322Z,2.88
2023-05-16T03:58:54.967Z,3.22
2023-05-16T03:59:56.635Z,3.22
2023-05-16T04:00:58.264Z,2.85
2023-05-16T04:01:59.937Z,2.88
2023-05-16T04:03:01.708Z,3.28
2023-05-16T04:04:03.405Z,3.83
2023-05-16T04:05:05.408Z,3.42
2023-05-16T04:06:07.537Z,3.10
2023-05-16T04:07:09.179Z,3.33
2023-05-16T04:08:10.832Z,3.60
2023-05-16T04:09:12.452Z,3.55
2023-05-16T04:10:14.213Z,3.17
2023-05-16T04:11:15.880Z,3.03
2023-05-16T04:12:17.529Z,3.05
2023-05-16T04:13:19.152Z,3.28
2023-05-16T04:14:20.910Z,3.00
2023-05-16T04:15:22.523Z,3.13
2023-05-16T04:16:24.196Z,3.38
2023-05-16T04:17:25.970Z,3.35
2023-05-16T04:18:27.602Z,3.33
2023-05-16T04:19:29.201Z,3.15
2023-05-16T04:20:32.797Z,2.80
2023-05-16T04:21:34.605Z,3.08
2023-05-16T04:22:36.278Z,3.10
2023-05-16T04:23:38.225Z,2.85
2023-05-16T04:24:39.838Z,3.20
2023-05-16T04:25:41.442Z,2.42
2023-05-16T04:26:43.065Z,3.00
2023-05-16T04:27:44.694Z,2.72
2023-05-16T04:28:46.321Z,3.25
2023-05-16T04:29:47.941Z,2.97
2023-05-16T04:30:49.808Z,2.90
2023-05-16T04:31:51.525Z,2.95
2023-05-16T04:32:53.250Z,2.90
2023-05-16T04:33:54.980Z,3.00
2023-05-16T04:34:56.587Z,3.03
2023-05-16T04:35:58.202Z,3.03
2023-05-16T04:37:00.046Z,3.08
2023-05-16T04:38:01.684Z,2.88
2023-05-16T04:39:03.288Z,2.85
2023-05-16T04:40:05.673Z,2.70
2023-05-16T04:41:07.280Z,3.17
2023-05-16T04:42:08.888Z,2.90
2023-05-16T04:43:10.564Z,3.05
2023-05-16T04:44:12.184Z,3.22
2023-05-16T04:45:13.850Z,3.00
2023-05-16T04:46:15.815Z,3.03
2023-05-16T04:47:17.431Z,3.38
2023-05-16T04:48:19.086Z,3.30
2023-05-16T04:49:20.693Z,3.17
2023-05-16T04:50:22.309Z,3.58
2023-05-16T04:51:23.943Z,3.33
2023-05-16T04:52:25.537Z,3.30
2023-05-16T04:53:27.218Z,3.25
2023-05-16T04:54:28.843Z,3.30
2023-05-16T04:55:30.762Z,3.00
2023-05-16T04:56:32.577Z,2.95
2023-05-16T04:57:34.200Z,3.00
2023-05-16T04:58:35.819Z,2.65
2023-05-16T04:59:37.429Z,2.67
2023-05-16T05:00:39.298Z,3.33
2023-05-16T05:01:40.936Z,2.90
2023-05-16T05:02:42.638Z,2.80
2023-05-16T05:03:46.292Z,2.70
2023-05-16T05:04:50.091Z,2.72
2023-05-16T05:05:51.728Z,3.05
2023-05-16T05:06:53.350Z,3.72
2023-05-16T05:07:54.962Z,2.90
2023-05-16T05:08:56.590Z,3.72
2023-05-16T05:09:58.192Z,3.55
2023-05-16T05:10:59.824Z,3.45
2023-05-16T05:12:01.536Z,3.30
2023-05-16T05:13:03.151Z,3.10
2023-05-16T05:14:04.797Z,3.45
2023-05-16T05:15:06.965Z,3.15
2023-05-16T05:17:10.023Z,3.30
2023-05-16T05:18:11.806Z,3.55
2023-05-16T05:19:13.537Z,3.17
2023-05-16T05:20:15.428Z,3.42
2023-05-16T05:21:17.039Z,3.65
2023-05-16T05:22:18.645Z,3.47
2023-05-16T05:23:20.295Z,3.15
2023-05-16T05:24:21.951Z,3.63
2023-05-16T05:25:23.687Z,3.30
2023-05-16T05:26:25.345Z,3.78
2023-05-16T05:27:26.998Z,2.95
2023-05-16T05:28:28.609Z,3.38
2023-05-16T05:29:30.258Z,3.40
2023-05-16T05:30:31.881Z,3.58
2023-05-16T05:31:33.501Z,3.30
2023-05-16T05:32:35.261Z,3.30
2023-05-16T05:33:37.013Z,3.30
2023-05-16T05:34:38.649Z,3.10
2023-05-16T05:35:40.251Z,3.78
2023-05-16T05:36:41.905Z,3.92
2023-05-16T05:37:43.698Z,3.45
2023-05-16T05:38:45.340Z,3.40
2023-05-16T05:39:47.016Z,3.42
2023-05-16T05:40:48.674Z,3.75
2023-05-16T05:41:50.275Z,3.78
2023-05-16T05:42:51.965Z,3.67
2023-05-16T05:43:53.581Z,3.42
2023-05-16T05:44:55.251Z,3.80
2023-05-16T05:45:56.923Z,3.67
2023-05-16T05:46:58.551Z,4.13
2023-05-16T05:48:00.260Z,4.30
2023-05-16T05:49:01.915Z,3.83
2023-05-16T05:50:03.939Z,4.35
2023-05-16T05:51:05.601Z,4.22
2023-05-16T05:52:07.244Z,4.07
2023-05-16T05:53:08.864Z,4.03
2023-05-16T05:54:10.528Z,3.95
2023-05-16T05:55:12.191Z,4.85
2023-05-16T05:56:13.820Z,6.75
2023-05-16T05:57:15.481Z,5.95
2023-05-16T05:58:17.183Z,5.65
2023-05-16T05:59:18.793Z,9.75
2023-05-16T06:00:20.514Z,5.35
2023-05-16T06:01:22.241Z,5.28
2023-05-16T06:02:23.961Z,4.28
2023-05-16T06:03:25.724Z,4.05
2023-05-16T06:04:27.405Z,4.10
2023-05-16T06:05:29.485Z,4.10
2023-05-16T06:06:31.411Z,4.00
2023-05-16T06:07:33.025Z,4.32
2023-05-16T06:08:34.684Z,4.03
2023-05-16T06:09:36.283Z,3.63
2023-05-16T06:10:38.045Z,4.88
2023-05-16T06:11:39.806Z,4.10
2023-05-16T06:12:41.419Z,3.85
2023-05-16T06:13:43.056Z,5.40
2023-05-16T06:14:44.686Z,4.63
2023-05-16T06:15:51.218Z,5.22
2023-05-16T06:16:53.007Z,5.57
2023-05-16T06:17:54.769Z,5.35
2023-05-16T06:18:56.441Z,5.45
2023-05-16T06:19:58.074Z,5.07
2023-05-16T06:20:59.692Z,5.43
2023-05-16T06:22:01.332Z,5.55
2023-05-16T06:23:02.960Z,8.82
2023-05-16T06:24:04.726Z,7.22
2023-05-16T06:25:06.691Z,5.78
2023-05-16T06:26:08.341Z,5.40
2023-05-16T06:27:09.938Z,5.75
2023-05-16T06:28:11.609Z,6.05
2023-05-16T06:29:13.219Z,5.30
2023-05-16T06:30:14.881Z,5.28
2023-05-16T06:31:16.555Z,6.15
2023-05-16T06:32:18.216Z,5.07
2023-05-16T06:33:19.851Z,5.38
2023-05-16T06:34:21.483Z,5.15
2023-05-16T06:35:23.088Z,5.35
2023-05-16T06:36:24.731Z,5.25
2023-05-16T06:37:26.342Z,5.32
2023-05-16T06:38:27.979Z,5.90
2023-05-16T06:39:29.648Z,6.45
2023-05-16T06:40:31.266Z,5.97
2023-05-16T06:41:32.961Z,6.47
2023-05-16T06:42:34.631Z,5.90
2023-05-16T06:43:36.263Z,5.47
2023-05-16T06:44:37.947Z,5.90
2023-05-16T06:45:39.659Z,5.50
2023-05-16T06:46:41.401Z,6.15
2023-05-16T06:47:43.119Z,6.20
2023-05-16T06:48:44.860Z,5.95
2023-05-16T06:49:46.571Z,6.47
2023-05-16T06:50:51.285Z,6.28
2023-05-16T06:51:52.956Z,6.28
2023-05-16T06:52:54.645Z,6.32
2023-05-16T06:53:56.321Z,6.55
2023-05-16T06:54:58.000Z,5.88
2023-05-16T06:55:59.654Z,6.70
2023-05-16T06:57:01.347Z,5.88
2023-05-16T06:58:03.064Z,6.10
2023-05-16T06:59:04.730Z,6.03
2023-05-16T07:00:06.855Z,5.78
2023-05-16T07:02:10.136Z,6.38
2023-05-16T07:03:12.110Z,6.65
2023-05-16T07:04:13.978Z,6.57
2023-05-16T07:05:15.628Z,6.03
2023-05-16T07:06:17.287Z,6.43
2023-05-16T07:07:18.984Z,6.40
2023-05-16T07:08:20.630Z,6.32
2023-05-16T07:09:22.307Z,6.70
2023-05-16T07:10:23.955Z,5.88
2023-05-16T07:11:25.604Z,6.82
2023-05-16T07:12:27.312Z,6.18
2023-05-16T07:13:28.978Z,6.13
2023-05-16T07:14:30.629Z,6.53
2023-05-16T07:15:32.356Z,6.25
2023-05-16T07:16:34.038Z,6.05
2023-05-16T07:17:37.028Z,6.47
2023-05-16T07:18:38.790Z,6.20
2023-05-16T07:19:40.503Z,6.35
2023-05-16T07:20:42.168Z,5.95
2023-05-16T07:21:43.816Z,6.18
2023-05-16T07:22:45.494Z,6.10
2023-05-16T07:23:47.144Z,6.13
2023-05-16T07:24:48.810Z,6.25
2023-05-16T07:25:50.499Z,5.38
2023-05-16T07:26:52.178Z,5.65
2023-05-16T07:27:53.852Z,6.18
2023-05-16T07:28:55.533Z,5.70
2023-05-16T07:29:57.198Z,6.43
2023-05-16T07:30:58.884Z,6.10
2023-05-16T07:32:00.669Z,6.80
2023-05-16T07:33:02.457Z,5.80
2023-05-16T07:34:04.140Z,5.97
2023-05-16T07:35:06.133Z,6.30
2023-05-16T07:36:16.069Z,5.93
2023-05-16T07:37:19.046Z,6.18
2023-05-16T07:38:21.468Z,6.57
2023-05-16T07:39:23.131Z,5.78
2023-05-16T07:40:24.810Z,5.78
2023-05-16T07:41:26.512Z,7.43
2023-05-16T07:42:28.229Z,6.15
2023-05-16T07:43:30.345Z,6.40
2023-05-16T07:45:33.494Z,6.18
2023-05-16T07:46:35.349Z,7.38
2023-05-16T07:47:37.162Z,5.78
2023-05-16T07:48:38.906Z,5.88
2023-05-16T07:49:40.598Z,6.00
2023-05-16T07:50:43.358Z,5.95
2023-05-16T07:51:45.047Z,6.05
2023-05-16T07:52:46.716Z,6.47
2023-05-16T07:53:48.381Z,5.70
2023-05-16T07:54:50.033Z,6.10
2023-05-16T07:55:51.690Z,6.57
2023-05-16T07:56:53.385Z,6.32
2023-05-16T07:57:55.022Z,6.35
2023-05-16T07:58:56.686Z,6.68
2023-05-16T07:59:58.435Z,6.65
2023-05-16T08:01:00.097Z,6.25
2023-05-16T08:02:01.837Z,6.47
2023-05-16T08:03:03.666Z,5.97
2023-05-16T08:04:05.398Z,6.65
2023-05-16T08:05:07.877Z,5.70
2023-05-16T08:07:11.357Z,5.78
2023-05-16T08:08:13.023Z,6.80
2023-05-16T08:09:14.689Z,6.65
2023-05-16T08:10:16.367Z,6.40
2023-05-16T08:11:19.066Z,6.53
2023-05-16T08:12:20.735Z,6.35
2023-05-16T08:13:22.459Z,6.03
2023-05-16T08:14:24.421Z,7.05
2023-05-16T08:15:27.933Z,7.03
2023-05-16T08:16:29.986Z,6.53
2023-05-16T08:17:31.749Z,6.65
2023-05-16T08:18:33.483Z,6.95
2023-05-16T08:19:35.375Z,6.75
2023-05-16T08:20:37.065Z,6.28
2023-05-16T08:21:38.946Z,6.65
2023-05-16T08:22:40.637Z,6.05
2023-05-16T08:23:42.292Z,6.68
2023-05-16T08:24:43.966Z,7.22
2023-05-16T08:25:45.675Z,6.60
2023-05-16T08:26:47.356Z,6.57
2023-05-16T08:27:50.088Z,6.50
2023-05-16T08:28:51.760Z,7.03
2023-05-16T08:29:53.472Z,6.60
2023-05-16T08:30:55.167Z,6.50
2023-05-16T08:31:56.998Z,10.27
2023-05-16T08:32:58.767Z,6.85
2023-05-16T08:34:00.444Z,7.72
2023-05-16T08:35:02.167Z,7.18
2023-05-16T08:36:04.038Z,7.07
2023-05-16T08:37:05.713Z,12.95
2023-05-16T08:38:07.378Z,8.98
2023-05-16T08:39:09.051Z,7.00
2023-05-16T08:40:11.057Z,6.72
2023-05-16T08:41:12.734Z,7.15
2023-05-16T08:42:14.393Z,7.20
2023-05-16T08:43:16.082Z,7.38
2023-05-16T08:44:17.739Z,8.05
2023-05-16T08:45:19.428Z,6.68
2023-05-16T08:46:22.522Z,7.07
2023-05-16T08:47:24.675Z,7.22
2023-05-16T08:49:27.916Z,8.07
2023-05-16T08:50:30.736Z,7.55
2023-05-16T08:51:33.162Z,7.47
2023-05-16T08:52:34.805Z,7.00
2023-05-16T08:53:40.353Z,7.15
2023-05-16T08:54:42.006Z,7.60
2023-05-16T08:55:43.688Z,7.20
2023-05-16T08:56:45.416Z,7.45
2023-05-16T08:57:48.561Z,6.22
2023-05-16T08:58:50.548Z,7.28
2023-05-16T08:59:52.214Z,6.95
2023-05-16T09:00:53.926Z,6.53
2023-05-16T09:01:55.878Z,6.95
2023-05-16T09:02:57.591Z,6.68
2023-05-16T09:03:59.920Z,7.95
2023-05-16T09:05:01.639Z,6.78
2023-05-16T09:06:06.125Z,7.22
2023-05-16T09:07:09.896Z,6.85
2023-05-16T09:08:11.569Z,7.50
2023-05-16T09:09:13.245Z,7.43
2023-05-16T09:10:14.886Z,6.85
2023-05-16T09:11:16.553Z,7.35
2023-05-16T09:12:18.210Z,7.45
2023-05-16T09:13:19.915Z,8.02
2023-05-16T09:14:21.630Z,8.30
2023-05-16T09:15:23.291Z,7.22
2023-05-16T09:16:25.012Z,7.22
2023-05-16T09:17:38.723Z,7.10
2023-05-16T09:18:56.191Z,8.13
2023-05-16T09:22:23.733Z,7.50
2023-05-16T09:23:25.529Z,8.15
2023-05-16T09:24:27.210Z,8.52
2023-05-16T09:25:31.734Z,9.40
2023-05-16T09:26:36.418Z,8.50
2023-05-16T09:27:38.184Z,9.18
2023-05-16T09:28:39.911Z,8.88
2023-05-16T09:29:42.209Z,9.00
2023-05-16T09:30:46.106Z,9.38
2023-05-16T09:31:49.606Z,9.70
2023-05-16T09:32:54.068Z,9.50
2023-05-16T09:33:58.832Z,10.07
2023-05-16T09:35:00.496Z,9.68
2023-05-16T09:36:03.722Z,10.07
2023-05-16T09:37:05.504Z,9.75
2023-05-16T09:38:07.514Z,9.63
2023-05-16T09:39:09.405Z,9.60
2023-05-16T09:40:11.291Z,9.70
2023-05-16T09:41:12.979Z,10.15
2023-05-16T09:42:15.404Z,11.23
2023-05-16T09:43:17.790Z,9.57
2023-05-16T09:44:19.993Z,9.90
2023-05-16T09:45:21.728Z,9.95
2023-05-16T09:46:26.343Z,10.32
2023-05-16T09:47:28.072Z,9.98
2023-05-16T09:48:29.788Z,10.30
2023-05-16T09:49:31.627Z,9.90
2023-05-16T09:50:34.069Z,9.65
2023-05-16T09:51:35.729Z,10.57
2023-05-16T09:52:38.041Z,9.95
2023-05-16T09:53:39.775Z,10.07
2023-05-16T09:54:41.403Z,10.15
2023-05-16T09:55:43.079Z,9.50
2023-05-16T09:56:51.027Z,10.23
2023-05-16T09:57:52.716Z,9.85
2023-05-16T09:58:54.359Z,10.05
2023-05-16T09:59:56.258Z,10.07
2023-05-16T10:00:58.094Z,10.20
2023-05-16T10:01:59.755Z,10.98
2023-05-16T10:03:04.795Z,10.95
2023-05-16T10:04:07.756Z,11.13
2023-05-16T10:05:09.569Z,9.45
2023-05-16T10:06:11.219Z,10.02
2023-05-16T10:07:12.894Z,10.77
2023-05-16T10:08:14.549Z,11.27
2023-05-16T10:09:19.212Z,11.35
2023-05-16T10:10:20.896Z,10.88
2023-05-16T10:11:22.593Z,11.18
2023-05-16T10:12:25.269Z,10.40
2023-05-16T10:13:31.241Z,10.23
2023-05-16T10:14:36.583Z,9.93
2023-05-16T10:15:38.261Z,10.68
2023-05-16T10:16:42.157Z,10.60
2023-05-16T10:17:45.441Z,11.93
2023-05-16T10:18:47.234Z,12.57
2023-05-16T10:19:48.924Z,10.65
2023-05-16T10:20:52.734Z,11.23
2023-05-16T10:21:57.982Z,11.50
2023-05-16T10:22:59.757Z,10.65
2023-05-16T10:24:03.584Z,10.20
2023-05-16T10:25:23.455Z,11.27
2023-05-16T10:26:25.162Z,11.48
2023-05-16T10:27:26.853Z,10.50
2023-05-16T10:28:28.560Z,10.90
2023-05-16T10:29:35.173Z,10.80
2023-05-16T10:30:43.042Z,12.57
2023-05-16T10:31:44.727Z,11.63
2023-05-16T10:32:46.446Z,11.27
2023-05-16T10:33:48.130Z,11.45
2023-05-16T10:34:49.801Z,11.32
2023-05-16T10:35:51.506Z,11.80
2023-05-16T10:36:53.513Z,10.82
2023-05-16T10:37:55.203Z,12.32
2023-05-16T10:38:56.883Z,11.73
2023-05-16T10:40:01.281Z,12.00
2023-05-16T10:41:02.938Z,12.57
2023-05-16T10:42:05.076Z,12.73
2023-05-16T10:43:07.958Z,11.13
2023-05-16T10:44:13.748Z,12.65
2023-05-16T10:45:19.250Z,13.35
2023-05-16T10:46:20.982Z,11.68
2023-05-16T10:47:22.725Z,13.02
2023-05-16T10:48:31.768Z,12.07
2023-05-16T10:49:33.424Z,11.48
2023-05-16T10:50:42.833Z,12.15
2023-05-16T10:51:44.488Z,12.13
2023-05-16T10:52:46.152Z,12.23
2023-05-16T10:53:47.852Z,12.52
2023-05-16T10:54:52.507Z,12.10
2023-05-16T10:56:00.226Z,13.10
2023-05-16T10:57:11.291Z,13.05
2023-05-16T10:58:12.954Z,11.27
2023-05-16T10:59:24.489Z,12.35
2023-05-16T11:00:26.148Z,11.35
2023-05-16T11:01:29.585Z,11.18
2023-05-16T11:02:32.560Z,12.35
2023-05-16T11:03:34.488Z,12.65
2023-05-16T11:04:55.560Z,12.50
2023-05-16T11:05:59.877Z,12.55
2023-05-16T11:07:01.552Z,12.32
2023-05-16T11:08:06.351Z,11.25
2023-05-16T11:09:10.918Z,12.43
2023-05-16T11:10:16.054Z,12.82
2023-05-16T11:11:38.485Z,11.63
2023-05-16T11:12:43.623Z,11.65
2023-05-16T11:13:57.052Z,12.55
2023-05-16T11:14:58.734Z,11.85
2023-05-16T11:16:28.428Z,13.18
2023-05-16T11:17:30.275Z,12.80
2023-05-16T11:18:32.699Z,12.68
2023-05-16T11:19:39.325Z,13.25
2023-05-16T11:20:40.972Z,13.27
2023-05-16T11:22:11.341Z,12.15
2023-05-16T11:23:15.834Z,12.68
2023-05-16T11:24:32.891Z,11.63
2023-05-16T11:25:37.281Z,11.43
2023-05-16T11:26:39.249Z,11.02
2023-05-16T11:27:47.391Z,12.55
2023-05-16T11:28:52.159Z,12.38
2023-05-16T11:29:55.225Z,12.05
2023-05-16T11:30:58.212Z,12.20
2023-05-16T11:32:00.842Z,12.35
2023-05-16T11:33:02.703Z,12.05
2023-05-16T11:34:04.469Z,12.70
2023-05-16T11:35:07.536Z,13.48
2023-05-16T11:37:14.243Z,12.38
2023-05-16T11:38:16.028Z,10.65
2023-05-16T11:39:19.492Z,11.60
2023-05-16T11:40:21.257Z,12.25
2023-05-16T11:41:22.970Z,12.35
2023-05-16T11:42:24.653Z,11.57
2023-05-16T11:43:26.306Z,11.10
2023-05-16T11:44:27.967Z,12.23
2023-05-16T11:45:29.850Z,11.80
2023-05-16T11:46:31.688Z,12.25
2023-05-16T11:47:33.611Z,12.38
2023-05-16T11:48:36.485Z,13.70
2023-05-16T11:49:38.658Z,12.57
2023-05-16T11:50:40.363Z,11.27
2023-05-16T11:51:42.449Z,12.45
2023-05-16T11:52:45.175Z,13.93
2023-05-16T11:53:48.494Z,12.75
2023-05-16T11:54:50.148Z,13.02
2023-05-16T11:55:53.937Z,13.73
2023-05-16T11:56:57.277Z,13.20
2023-05-16T11:57:58.949Z,13.05
2023-05-16T11:59:00.655Z,12.65
2023-05-16T12:00:06.134Z,12.68
2023-05-16T12:01:07.817Z,12.80
2023-05-16T12:02:09.970Z,13.70
2023-05-16T12:03:11.772Z,12.70
2023-05-16T12:04:14.717Z,12.25
2023-05-16T12:05:17.637Z,12.30
2023-05-16T12:06:19.407Z,12.65
2023-05-16T12:07:23.213Z,13.02
2023-05-16T12:08:25.070Z,12.45
2023-05-16T12:09:26.775Z,13.70
2023-05-16T12:10:31.335Z,13.32
2023-05-16T12:11:33.004Z,12.75
2023-05-16T12:12:35.216Z,13.85
2023-05-16T12:13:36.901Z,13.40
2023-05-16T12:14:38.563Z,14.68
2023-05-16T12:15:40.258Z,13.75
2023-05-16T12:16:41.940Z,14.95
2023-05-16T12:17:43.646Z,14.65
2023-05-16T12:18:45.397Z,14.75
2023-05-16T12:19:47.087Z,14.32
2023-05-16T12:20:48.851Z,14.85
2023-05-16T12:21:54.002Z,14.43
2023-05-16T12:22:57.676Z,13.43
2023-05-16T12:23:59.367Z,14.43
2023-05-16T12:25:18.376Z,13.95
2023-05-16T12:26:26.717Z,13.50
2023-05-16T12:27:28.394Z,13.30
2023-05-16T12:28:33.120Z,14.27
2023-05-16T12:29:34.782Z,15.73
2023-05-16T12:30:36.439Z,14.38
2023-05-16T12:31:39.471Z,13.95
2023-05-16T12:32:41.359Z,16.83
2023-05-16T12:33:43.144Z,12.73
2023-05-16T12:34:52.361Z,13.65
2023-05-16T12:35:54.033Z,14.07
2023-05-16T12:36:55.807Z,15.48
2023-05-16T12:37:57.564Z,12.98
2023-05-16T12:39:02.861Z,12.20
2023-05-16T12:40:07.847Z,12.77
2023-05-16T12:41:09.546Z,11.90
2023-05-16T12:42:11.911Z,13.88
2023-05-16T12:43:20.356Z,13.38
2023-05-16T12:44:22.038Z,15.07
2023-05-16T12:45:23.844Z,12.80
2023-05-16T12:46:25.612Z,14.35
2023-05-16T12:47:35.880Z,14.43
2023-05-16T12:48:37.591Z,11.93
2023-05-16T12:49:45.747Z,12.55
2023-05-16T12:50:47.646Z,11.98
2023-05-16T12:51:53.704Z,12.52
2023-05-16T12:52:59.015Z,12.57
2023-05-16T12:54:10.222Z,11.63
2023-05-16T12:56:16.641Z,12.15
2023-05-16T12:57:18.308Z,12.63
2023-05-16T12:58:20.032Z,12.30
2023-05-16T12:59:21.743Z,11.40
2023-05-16T13:00:23.508Z,11.05
2023-05-16T13:01:25.254Z,11.10
2023-05-16T13:02:27.053Z,11.88
2023-05-16T13:03:28.941Z,11.65
2023-05-16T13:04:30.725Z,11.32
2023-05-16T13:05:32.389Z,12.57
2023-05-16T13:06:48.944Z,12.23
2023-05-16T13:07:55.939Z,13.20
2023-05-16T13:08:57.594Z,11.98
2023-05-16T13:09:59.283Z,12.02
2023-05-16T13:11:00.953Z,12.75
2023-05-16T13:12:02.624Z,12.30
2023-05-16T13:13:04.314Z,12.95
2023-05-16T13:14:05.998Z,12.73
2023-05-16T13:15:08.585Z,13.13
2023-05-16T13:16:10.431Z,12.98
2023-05-16T13:17:12.186Z,11.82
2023-05-16T13:18:14.444Z,13.18
2023-05-16T13:19:16.151Z,12.98
2023-05-16T13:20:17.884Z,13.05
2023-05-16T13:21:19.580Z,12.27
2023-05-16T13:22:21.258Z,13.10
2023-05-16T13:23:22.902Z,12.63
2023-05-16T13:24:24.561Z,12.82
2023-05-16T13:25:26.462Z,13.18
2023-05-16T13:27:32.465Z,12.68
2023-05-16T13:28:34.123Z,12.70
2023-05-16T13:29:35.775Z,12.95
2023-05-16T13:30:37.473Z,13.60
2023-05-16T13:31:39.306Z,13.35
2023-05-16T13:32:41.621Z,13.35
2023-05-16T13:34:44.750Z,12.95
2023-05-16T13:35:46.423Z,13.15
2023-05-16T13:36:53.942Z,12.48
2023-05-16T13:37:56.526Z,11.93
2023-05-16T13:38:58.182Z,12.15
2023-05-16T13:39:59.915Z,12.32
2023-05-16T13:41:01.610Z,12.15
2023-05-16T13:42:03.747Z,12.40
2023-05-16T13:43:05.412Z,13.40
2023-05-16T13:44:07.064Z,13.57
2023-05-16T13:45:08.956Z,13.57
2023-05-16T13:46:10.697Z,14.80
2023-05-16T13:47:12.426Z,17.27
2023-05-16T13:48:14.125Z,14.07
2023-05-16T13:49:15.809Z,14.98
2023-05-16T13:50:17.509Z,12.38
2023-05-16T13:51:19.234Z,13.57
2023-05-16T13:52:20.906Z,13.77
2023-05-16T13:53:22.600Z,13.35
2023-05-16T13:54:24.254Z,13.32
2023-05-16T13:55:26.070Z,14.35
2023-05-16T13:56:27.977Z,14.02
2023-05-16T13:57:29.640Z,13.15
2023-05-16T13:58:31.317Z,13.30
2023-05-16T14:00:02.089Z,12.15
2023-05-16T14:00:57.917Z,12.88
2023-05-16T14:02:01.610Z,15.80
2023-05-16T14:03:03.424Z,14.88
2023-05-16T14:04:05.416Z,14.27
2023-05-16T14:05:07.791Z,14.07